createdAt,value
2019-05-30T00:00:28.437Z,1005.55
2019-05-30T00:01:28.425Z,1005.50
2019-05-30T00:02:28.422Z,1005.53
2019-05-30T00:04:28.391Z,1005.54
2019-05-30T00:06:28.373Z,1005.59
2019-05-30T00:07:28.385Z,1005.55
2019-05-30T00:08:28.363Z,1005.61
2019-05-30T00:09:28.347Z,1005.54
2019-05-30T00:10:28.325Z,1005.61
2019-05-30T00:11:28.337Z,1005.66
2019-05-30T00:12:28.308Z,1005.61
2019-05-30T00:13:28.297Z,1005.66
2019-05-30T00:14:28.290Z,1005.68
2019-05-30T00:15:28.276Z,1005.67
2019-05-30T00:16:28.280Z,1005.66
2019-05-30T00:17:28.405Z,1005.71
2019-05-30T00:18:28.237Z,1005.73
2019-05-30T00:19:28.302Z,1005.72
2019-05-30T00:20:28.219Z,1005.69
2019-05-30T00:21:28.211Z,1005.72
2019-05-30T00:22:28.199Z,1005.76
2019-05-30T00:23:28.194Z,1005.65
2019-05-30T00:24:28.182Z,1005.66
2019-05-30T00:25:28.177Z,1005.71
2019-05-30T00:26:39.977Z,1005.70
2019-05-30T00:27:28.147Z,1005.74
2019-05-30T00:29:28.156Z,1005.70
2019-05-30T00:30:28.114Z,1005.79
2019-05-30T00:31:28.102Z,1005.81
2019-05-30T00:32:28.089Z,1005.78
2019-05-30T00:33:28.080Z,1005.82
2019-05-30T00:35:28.070Z,1005.76
2019-05-30T00:37:28.036Z,1005.76
2019-05-30T00:38:28.025Z,1005.85
2019-05-30T00:39:28.009Z,1005.80
2019-05-30T00:40:28.011Z,1005.87
2019-05-30T00:41:27.987Z,1005.88
2019-05-30T00:42:27.981Z,1005.92
2019-05-30T00:43:27.973Z,1005.89
2019-05-30T00:44:27.957Z,1005.92
2019-05-30T00:45:27.951Z,1005.88
2019-05-30T00:46:27.948Z,1005.95
2019-05-30T00:47:27.927Z,1005.99
2019-05-30T00:48:27.913Z,1005.95
2019-05-30T00:49:27.905Z,1005.95
2019-05-30T00:50:27.899Z,1005.95
2019-05-30T00:51:27.889Z,1005.96
2019-05-30T00:52:27.874Z,1005.94
2019-05-30T00:53:27.859Z,1005.96
2019-05-30T00:54:27.847Z,1005.98
2019-05-30T00:55:27.843Z,1005.98
2019-05-30T00:56:27.869Z,1006.03
2019-05-30T00:57:39.112Z,1006.04
2019-05-30T00:58:27.807Z,1006.09
2019-05-30T01:00:42.996Z,1006.09
2019-05-30T01:01:28.777Z,1006.10
2019-05-30T01:02:27.763Z,1006.10
2019-05-30T01:03:27.770Z,1006.12
2019-05-30T01:04:27.744Z,1006.16
2019-05-30T01:05:27.753Z,1006.18
2019-05-30T01:27:27.488Z,1006.56
2019-05-30T01:28:39.157Z,1006.60
2019-05-30T01:29:27.463Z,1006.61
2019-05-30T01:58:27.160Z,1006.87
2019-05-30T01:59:39.276Z,1006.89
2019-05-30T02:00:27.168Z,1006.86
2019-05-30T02:29:26.841Z,1007.59
2019-05-30T02:30:38.584Z,1007.59
2019-05-30T02:31:38.506Z,1007.71
2019-05-30T03:00:26.475Z,1007.99
2019-05-30T03:01:58.355Z,1007.94
2019-05-30T03:02:27.457Z,1007.98
2019-05-30T03:12:26.348Z,1008.07
2019-05-30T03:31:29.199Z,1008.30
2019-05-30T03:33:03.663Z,1008.31
2019-05-30T03:33:39.360Z,1008.33
2019-05-30T03:34:29.174Z,1008.42
2019-05-30T03:35:29.894Z,1008.41
2019-05-30T03:36:31.214Z,1008.43
2019-05-30T03:37:29.396Z,1008.44
2019-05-30T03:38:26.077Z,1008.32
2019-05-30T03:39:26.073Z,1008.43
2019-05-30T03:40:28.239Z,1008.45
2019-05-30T03:41:26.052Z,1008.38
2019-05-30T03:42:26.031Z,1008.50
2019-05-30T03:43:26.015Z,1008.42
2019-05-30T03:44:26.002Z,1008.51
2019-05-30T03:45:26.010Z,1008.52
2019-05-30T03:46:25.974Z,1008.46
2019-05-30T03:47:25.976Z,1008.45
2019-05-30T03:48:25.952Z,1008.47
2019-05-30T03:49:25.942Z,1008.55
2019-05-30T03:50:25.938Z,1008.49
2019-05-30T03:51:25.935Z,1008.47
2019-05-30T03:52:25.939Z,1008.49
2019-05-30T03:53:25.910Z,1008.55
2019-05-30T03:54:25.895Z,1008.56
2019-05-30T03:55:25.887Z,1008.57
2019-05-30T03:56:25.873Z,1008.60
2019-05-30T03:57:25.858Z,1008.58
2019-05-30T03:58:26.172Z,1008.58
2019-05-30T03:59:25.860Z,1008.61
2019-05-30T04:00:25.831Z,1008.61
2019-05-30T04:01:25.824Z,1008.61
2019-05-30T04:02:25.814Z,1008.61
2019-05-30T04:03:37.840Z,1008.62
2019-05-30T04:04:25.787Z,1008.63
2019-05-30T04:05:25.786Z,1008.62
2019-05-30T04:06:25.778Z,1008.66
2019-05-30T04:07:25.754Z,1008.70
2019-05-30T04:08:25.800Z,1008.66
2019-05-30T04:09:25.732Z,1008.69
2019-05-30T04:10:25.722Z,1008.65
2019-05-30T04:11:25.723Z,1008.68
2019-05-30T04:12:25.710Z,1008.72
2019-05-30T04:14:25.689Z,1008.64
2019-05-30T04:15:25.669Z,1008.75
2019-05-30T04:16:25.683Z,1008.73
2019-05-30T04:17:25.648Z,1008.78
2019-05-30T04:18:25.664Z,1008.70
2019-05-30T04:19:25.645Z,1008.71
2019-05-30T04:20:25.622Z,1008.75
2019-05-30T04:21:26.339Z,1008.72
2019-05-30T04:22:25.611Z,1008.80
2019-05-30T04:23:25.592Z,1008.73
2019-05-30T04:24:25.607Z,1008.80
2019-05-30T04:25:25.572Z,1008.80
2019-05-30T04:26:25.552Z,1008.78
2019-05-30T04:27:25.545Z,1008.78
2019-05-30T04:28:25.542Z,1008.72
2019-05-30T04:29:25.529Z,1008.76
2019-05-30T04:30:25.526Z,1008.84
2019-05-30T04:31:25.506Z,1008.74
2019-05-30T04:32:25.486Z,1008.77
2019-05-30T04:33:32.026Z,1008.79
2019-05-30T04:35:40.121Z,1008.83
2019-05-30T04:37:40.058Z,1008.81
2019-05-30T04:38:40.051Z,1008.85
2019-05-30T04:39:40.034Z,1008.80
2019-05-30T04:40:40.027Z,1008.80
2019-05-30T04:41:40.026Z,1008.82
2019-05-30T04:42:40.002Z,1008.76
2019-05-30T04:43:40.006Z,1008.77
2019-05-30T04:45:39.971Z,1008.88
2019-05-30T04:46:39.991Z,1008.84
2019-05-30T04:47:39.952Z,1008.87
2019-05-30T04:48:39.945Z,1008.88
2019-05-30T04:49:39.929Z,1008.89
2019-05-30T04:50:39.929Z,1008.91
2019-05-30T04:51:39.910Z,1008.91
2019-05-30T04:52:39.929Z,1008.94
2019-05-30T04:53:39.895Z,1008.92
2019-05-30T04:54:39.882Z,1008.88
2019-05-30T04:55:39.868Z,1008.94
2019-05-30T04:56:39.862Z,1008.94
2019-05-30T04:57:39.923Z,1008.92
2019-05-30T04:58:42.177Z,1008.95
2019-05-30T04:59:39.845Z,1008.92
2019-05-30T05:00:39.814Z,1008.91
2019-05-30T05:01:40.408Z,1008.90
2019-05-30T05:02:39.796Z,1009.03
2019-05-30T05:03:46.007Z,1008.99
2019-05-30T05:04:40.774Z,1009.00
2019-05-30T05:06:39.754Z,1009.02
2019-05-30T05:08:39.750Z,1008.99
2019-05-30T05:09:39.721Z,1008.98
2019-05-30T05:10:39.712Z,1009.05
2019-05-30T05:11:39.696Z,1009.01
2019-05-30T05:12:39.687Z,1009.06
2019-05-30T05:13:39.674Z,1009.04
2019-05-30T05:14:39.705Z,1009.05
2019-05-30T05:16:39.640Z,1009.05
2019-05-30T05:17:39.651Z,1009.13
2019-05-30T05:18:39.621Z,1009.09
2019-05-30T05:19:39.636Z,1009.10
2019-05-30T05:20:39.602Z,1009.13
2019-05-30T05:21:39.590Z,1009.11
2019-05-30T05:22:39.571Z,1009.14
2019-05-30T05:23:39.572Z,1009.15
2019-05-30T05:24:39.561Z,1009.12
2019-05-30T05:25:39.598Z,1009.13
2019-05-30T05:26:39.541Z,1009.17
2019-05-30T05:27:39.518Z,1009.12
2019-05-30T05:28:39.510Z,1009.11
2019-05-30T05:29:39.519Z,1009.17
2019-05-30T05:30:39.485Z,1009.11
2019-05-30T05:31:39.504Z,1009.09
2019-05-30T05:32:39.463Z,1009.12
2019-05-30T05:33:39.456Z,1009.13
2019-05-30T05:34:39.441Z,1009.16
2019-05-30T05:35:39.446Z,1009.18
2019-05-30T05:36:51.365Z,1009.17
2019-05-30T05:37:39.409Z,1009.20
2019-05-30T05:38:39.403Z,1009.26
2019-05-30T05:39:39.387Z,1009.14
2019-05-30T05:40:39.422Z,1009.21
2019-05-30T05:41:39.377Z,1009.15
2019-05-30T05:42:39.357Z,1009.17
2019-05-30T05:43:39.362Z,1009.19
2019-05-30T05:44:39.333Z,1009.22
2019-05-30T05:45:39.360Z,1009.24
2019-05-30T05:46:39.322Z,1009.22
2019-05-30T05:47:39.303Z,1009.26
2019-05-30T05:48:39.310Z,1009.23
2019-05-30T05:49:39.278Z,1009.25
2019-05-30T05:50:39.320Z,1009.27
2019-05-30T05:51:39.261Z,1009.27
2019-05-30T05:52:39.253Z,1009.29
2019-05-30T05:53:39.248Z,1009.31
2019-05-30T05:54:39.233Z,1009.28
2019-05-30T05:55:39.220Z,1009.28
2019-05-30T05:56:39.220Z,1009.26
2019-05-30T05:57:39.228Z,1009.26
2019-05-30T05:58:39.186Z,1009.33
2019-05-30T05:59:39.171Z,1009.33
2019-05-30T06:00:39.169Z,1009.32
2019-05-30T06:01:39.169Z,1009.32
2019-05-30T06:02:39.144Z,1009.39
2019-05-30T06:03:39.139Z,1009.33
2019-05-30T06:04:39.120Z,1009.37
2019-05-30T06:05:52.241Z,1009.30
2019-05-30T06:06:40.096Z,1009.36
2019-05-30T06:07:51.058Z,1009.34
2019-05-30T06:08:39.079Z,1009.32
2019-05-30T06:09:39.064Z,1009.35
2019-05-30T06:10:39.052Z,1009.37
2019-05-30T06:11:39.039Z,1009.39
2019-05-30T06:12:39.035Z,1009.33
2019-05-30T06:13:39.060Z,1009.39
2019-05-30T06:14:39.029Z,1009.31
2019-05-30T06:15:39.005Z,1009.35
2019-05-30T06:16:39.011Z,1009.35
2019-05-30T06:17:38.980Z,1009.33
2019-05-30T06:18:38.968Z,1009.37
2019-05-30T06:19:46.392Z,1009.32
2019-05-30T06:20:39.945Z,1009.33
2019-05-30T06:21:53.161Z,1009.30
2019-05-30T06:22:39.937Z,1009.34
2019-05-30T06:23:38.962Z,1009.26
2019-05-30T06:24:38.908Z,1009.19
2019-05-30T06:25:38.908Z,1009.23
2019-05-30T06:26:38.883Z,1009.28
2019-05-30T06:27:38.867Z,1009.24
2019-05-30T06:28:38.858Z,1009.34
2019-05-30T06:29:38.860Z,1009.28
2019-05-30T06:30:38.834Z,1009.28
2019-05-30T06:31:38.836Z,1009.29
2019-05-30T06:32:38.822Z,1009.28
2019-05-30T06:33:38.809Z,1009.30
2019-05-30T06:34:40.063Z,1009.28
2019-05-30T06:35:38.782Z,1009.31
2019-05-30T06:36:38.774Z,1009.36
2019-05-30T06:37:38.760Z,1009.35
2019-05-30T06:39:38.748Z,1009.34
2019-05-30T06:40:38.731Z,1009.33
2019-05-30T06:41:38.710Z,1009.33
2019-05-30T06:42:38.698Z,1009.38
2019-05-30T06:43:38.697Z,1009.35
2019-05-30T06:44:38.678Z,1009.32
2019-05-30T06:45:38.683Z,1009.26
2019-05-30T06:46:38.666Z,1009.31
2019-05-30T06:47:38.653Z,1009.33
2019-05-30T06:48:38.684Z,1009.28
2019-05-30T06:49:38.631Z,1009.31
2019-05-30T06:50:38.663Z,1009.24
2019-05-30T06:51:38.609Z,1009.32
2019-05-30T06:52:38.647Z,1009.27
2019-05-30T06:53:38.581Z,1009.26
2019-05-30T06:54:38.577Z,1009.29
2019-05-30T06:55:38.559Z,1009.23
2019-05-30T06:56:38.553Z,1009.25
2019-05-30T06:57:38.538Z,1009.25
2019-05-30T06:58:48.128Z,1009.26
2019-05-30T06:59:39.518Z,1009.22
2019-05-30T07:00:38.503Z,1009.23
2019-05-30T07:01:38.534Z,1009.25
2019-05-30T07:02:38.503Z,1009.25
2019-05-30T07:03:38.538Z,1009.19
2019-05-30T07:04:50.809Z,1009.22
2019-05-30T07:05:40.123Z,1009.27
2019-05-30T07:06:38.797Z,1009.28
2019-05-30T07:07:38.683Z,1009.29
2019-05-30T07:08:38.420Z,1009.27
2019-05-30T07:10:38.393Z,1009.26
2019-05-30T07:11:38.382Z,1009.31
2019-05-30T07:12:38.365Z,1009.31
2019-05-30T07:13:38.376Z,1009.36
2019-05-30T07:14:38.342Z,1009.27
2019-05-30T07:15:38.329Z,1009.38
2019-05-30T07:16:38.325Z,1009.32
2019-05-30T07:17:38.329Z,1009.38
2019-05-30T07:18:38.301Z,1009.29
2019-05-30T07:19:38.308Z,1009.36
2019-05-30T07:20:38.275Z,1009.37
2019-05-30T07:21:38.278Z,1009.38
2019-05-30T07:22:38.275Z,1009.44
2019-05-30T07:23:39.385Z,1009.39
2019-05-30T07:24:38.239Z,1009.33
2019-05-30T07:25:38.232Z,1009.40
2019-05-30T07:26:38.222Z,1009.34
2019-05-30T07:27:38.246Z,1009.36
2019-05-30T07:28:38.195Z,1009.38
2019-05-30T07:29:38.174Z,1009.35
2019-05-30T07:30:38.162Z,1009.38
2019-05-30T07:31:38.186Z,1009.38
2019-05-30T07:32:38.147Z,1009.41
2019-05-30T07:33:38.143Z,1009.41
2019-05-30T07:34:38.121Z,1009.48
2019-05-30T07:35:38.139Z,1009.47
2019-05-30T07:36:38.616Z,1009.58
2019-05-30T07:37:38.096Z,1009.47
2019-05-30T07:38:38.095Z,1009.42
2019-05-30T07:39:38.073Z,1009.40
2019-05-30T07:41:38.039Z,1009.45
2019-05-30T07:42:38.035Z,1009.47
2019-05-30T07:43:38.073Z,1009.44
2019-05-30T07:44:38.005Z,1009.49
2019-05-30T07:45:38.001Z,1009.41
2019-05-30T07:46:37.999Z,1009.36
2019-05-30T07:47:38.611Z,1009.40
2019-05-30T07:48:38.638Z,1009.36
2019-05-30T07:49:38.687Z,1009.39
2019-05-30T07:50:38.781Z,1009.40
2019-05-30T07:51:39.028Z,1009.39
2019-05-30T07:52:39.030Z,1009.42
2019-05-30T07:53:39.066Z,1009.42
2019-05-30T07:54:39.180Z,1009.41
2019-05-30T07:55:37.892Z,1009.37
2019-05-30T07:56:38.054Z,1009.44
2019-05-30T07:57:40.730Z,1009.41
2019-05-30T07:58:37.859Z,1009.42
2019-05-30T07:59:38.723Z,1009.51
2019-05-30T08:00:37.894Z,1009.43
2019-05-30T08:01:39.623Z,1009.44
2019-05-30T08:02:38.043Z,1009.38
2019-05-30T08:03:38.872Z,1009.44
2019-05-30T08:04:37.929Z,1009.43
2019-05-30T08:05:38.891Z,1009.46
2019-05-30T08:06:37.952Z,1009.43
2019-05-30T08:07:38.974Z,1009.44
2019-05-30T08:08:38.127Z,1009.40
2019-05-30T08:09:37.738Z,1009.39
2019-05-30T08:10:38.141Z,1009.36
2019-05-30T08:12:38.424Z,1009.38
2019-05-30T08:13:37.684Z,1009.39
2019-05-30T08:14:37.671Z,1009.38
2019-05-30T08:15:43.730Z,1009.41
2019-05-30T08:16:38.693Z,1009.36
2019-05-30T08:17:37.980Z,1009.39
2019-05-30T08:18:37.980Z,1009.42
2019-05-30T08:19:38.156Z,1009.44
2019-05-30T08:20:38.027Z,1009.41
2019-05-30T08:21:38.322Z,1009.41
2019-05-30T08:22:38.347Z,1009.38
2019-05-30T08:23:38.402Z,1009.39
2019-05-30T08:24:38.869Z,1009.42
2019-05-30T08:25:38.493Z,1009.41
2019-05-30T08:26:38.494Z,1009.37
2019-05-30T08:27:38.657Z,1009.39
2019-05-30T08:28:38.592Z,1009.42
2019-05-30T08:29:38.556Z,1009.37
2019-05-30T08:30:38.613Z,1009.50
2019-05-30T08:31:38.796Z,1009.46
2019-05-30T08:32:38.777Z,1009.46
2019-05-30T08:33:37.692Z,1009.47
2019-05-30T08:34:38.741Z,1009.38
2019-05-30T08:35:47.533Z,1009.46
2019-05-30T08:36:39.178Z,1009.55
2019-05-30T08:37:37.474Z,1009.56
2019-05-30T08:38:37.504Z,1009.49
2019-05-30T08:39:37.453Z,1009.43
2019-05-30T08:40:37.776Z,1009.49
2019-05-30T08:41:37.462Z,1009.49
2019-05-30T08:43:37.575Z,1009.44
2019-05-30T08:44:37.979Z,1009.49
2019-05-30T08:45:38.004Z,1009.46
2019-05-30T08:46:37.971Z,1009.52
2019-05-30T08:47:38.087Z,1009.56
2019-05-30T08:48:38.319Z,1009.59
2019-05-30T08:49:38.266Z,1009.61
2019-05-30T08:50:42.409Z,1009.59
2019-05-30T08:51:38.349Z,1009.58
2019-05-30T08:52:38.505Z,1009.65
2019-05-30T08:53:38.351Z,1009.70
2019-05-30T08:54:38.445Z,1009.65
2019-05-30T08:55:38.494Z,1009.68
2019-05-30T08:56:38.518Z,1009.61
2019-05-30T08:57:38.304Z,1009.64
2019-05-30T08:58:37.183Z,1009.70
2019-05-30T08:59:37.159Z,1009.66
2019-05-30T09:00:37.159Z,1009.72
2019-05-30T09:01:37.745Z,1009.65
2019-05-30T09:02:37.134Z,1009.58
2019-05-30T09:03:38.409Z,1009.60
2019-05-30T09:04:37.959Z,1009.67
2019-05-30T09:05:37.134Z,1009.62
2019-05-30T09:06:37.846Z,1009.64
2019-05-30T09:07:38.226Z,1009.55
2019-05-30T09:08:37.933Z,1009.62
2019-05-30T09:09:38.144Z,1009.68
2019-05-30T09:10:37.866Z,1009.61
2019-05-30T09:11:37.677Z,1009.61
2019-05-30T09:12:38.529Z,1009.64
2019-05-30T09:14:38.878Z,1009.60
2019-05-30T09:15:37.958Z,1009.75
2019-05-30T09:16:36.977Z,1009.64
2019-05-30T09:17:38.694Z,1009.70
2019-05-30T09:18:38.546Z,1009.65
2019-05-30T09:19:38.095Z,1009.64
2019-05-30T09:20:38.075Z,1009.68
2019-05-30T09:21:38.197Z,1009.64
2019-05-30T09:22:37.990Z,1009.59
2019-05-30T09:23:38.285Z,1009.61
2019-05-30T09:24:37.470Z,1009.67
2019-05-30T09:25:37.239Z,1009.56
2019-05-30T09:26:38.455Z,1009.69
2019-05-30T09:27:37.758Z,1009.59
2019-05-30T09:28:37.727Z,1009.59
2019-05-30T09:29:38.073Z,1009.65
2019-05-30T09:30:38.195Z,1009.67
2019-05-30T09:31:38.069Z,1009.68
2019-05-30T09:32:36.785Z,1009.60
2019-05-30T09:33:36.771Z,1009.67
2019-05-30T09:34:36.836Z,1009.69
2019-05-30T09:35:36.752Z,1009.60
2019-05-30T09:36:36.769Z,1009.68
2019-05-30T09:37:36.725Z,1009.65
2019-05-30T09:38:36.759Z,1009.66
2019-05-30T09:39:36.713Z,1009.66
2019-05-30T09:40:36.696Z,1009.61
2019-05-30T09:41:36.683Z,1009.57
2019-05-30T09:42:36.684Z,1009.57
2019-05-30T09:43:36.672Z,1009.53
2019-05-30T09:45:36.635Z,1009.54
2019-05-30T09:46:36.660Z,1009.67
2019-05-30T09:47:36.622Z,1009.70
2019-05-30T09:48:36.604Z,1009.64
2019-05-30T09:49:36.594Z,1009.56
2019-05-30T09:50:36.575Z,1009.54
2019-05-30T09:51:36.566Z,1009.65
2019-05-30T09:52:36.563Z,1009.65
2019-05-30T09:53:36.572Z,1009.58
2019-05-30T09:54:36.575Z,1009.61
2019-05-30T09:55:36.530Z,1009.49
2019-05-30T09:56:36.520Z,1009.57
2019-05-30T09:57:36.623Z,1009.41
2019-05-30T09:58:36.504Z,1009.57
2019-05-30T09:59:36.539Z,1009.53
2019-05-30T10:00:36.472Z,1009.57
2019-05-30T10:01:36.460Z,1009.55
2019-05-30T10:02:36.441Z,1009.55
2019-05-30T10:03:36.475Z,1009.55
2019-05-30T10:04:36.419Z,1009.52
2019-05-30T10:05:36.449Z,1009.59
2019-05-30T10:06:36.396Z,1009.55
2019-05-30T10:07:36.393Z,1009.45
2019-05-30T10:08:36.378Z,1009.47
2019-05-30T10:09:36.378Z,1009.47
2019-05-30T10:10:36.378Z,1009.53
2019-05-30T10:11:36.411Z,1009.55
2019-05-30T10:12:36.332Z,1009.58
2019-05-30T10:13:36.318Z,1009.50
2019-05-30T10:14:36.346Z,1009.59
2019-05-30T10:15:48.548Z,1009.50
2019-05-30T10:16:36.283Z,1009.52
2019-05-30T10:17:36.274Z,1009.52
2019-05-30T10:18:36.276Z,1009.45
2019-05-30T10:19:36.258Z,1009.44
2019-05-30T10:20:36.248Z,1009.52
2019-05-30T10:21:36.236Z,1009.56
2019-05-30T10:22:36.225Z,1009.56
2019-05-30T10:23:36.210Z,1009.51
2019-05-30T10:24:36.202Z,1009.48
2019-05-30T10:25:36.198Z,1009.47
2019-05-30T10:26:36.169Z,1009.39
2019-05-30T10:27:36.168Z,1009.44
2019-05-30T10:28:36.147Z,1009.36
2019-05-30T10:29:36.146Z,1009.42
2019-05-30T10:30:36.169Z,1009.45
2019-05-30T10:31:36.120Z,1009.45
2019-05-30T10:32:36.107Z,1009.42
2019-05-30T10:33:36.100Z,1009.41
2019-05-30T10:34:36.129Z,1009.40
2019-05-30T10:35:36.085Z,1009.40
2019-05-30T10:36:44.333Z,1009.39
2019-05-30T10:37:37.054Z,1009.37
2019-05-30T10:38:36.044Z,1009.37
2019-05-30T10:39:36.024Z,1009.23
2019-05-30T10:40:36.052Z,1009.37
2019-05-30T10:41:36.065Z,1009.42
2019-05-30T10:42:36.002Z,1009.43
2019-05-30T10:43:36.001Z,1009.41
2019-05-30T10:44:35.969Z,1009.46
2019-05-30T10:45:38.589Z,1009.50
2019-05-30T10:46:48.957Z,1009.39
2019-05-30T10:47:35.927Z,1009.42
2019-05-30T10:48:35.922Z,1009.44
2019-05-30T10:49:35.910Z,1009.48
2019-05-30T10:50:35.896Z,1009.38
2019-05-30T10:51:35.887Z,1009.39
2019-05-30T10:52:35.880Z,1009.41
2019-05-30T10:53:37.599Z,1009.39
2019-05-30T10:54:35.860Z,1009.43
2019-05-30T10:55:35.842Z,1009.38
2019-05-30T10:56:35.829Z,1009.35
2019-05-30T10:57:35.830Z,1009.36
2019-05-30T10:58:35.802Z,1009.32
2019-05-30T10:59:35.830Z,1009.40
2019-05-30T11:00:35.802Z,1009.33
2019-05-30T11:01:35.789Z,1009.34
2019-05-30T11:02:35.764Z,1009.42
2019-05-30T11:03:35.755Z,1009.41
2019-05-30T11:04:35.742Z,1009.45
2019-05-30T11:05:35.732Z,1009.48
2019-05-30T11:06:35.716Z,1009.41
2019-05-30T11:07:35.711Z,1009.47
2019-05-30T11:08:35.706Z,1009.46
2019-05-30T11:09:35.690Z,1009.45
2019-05-30T11:10:35.668Z,1009.42
2019-05-30T11:11:35.663Z,1009.39
2019-05-30T11:12:35.668Z,1009.44
2019-05-30T11:13:35.644Z,1009.40
2019-05-30T11:14:35.640Z,1009.34
2019-05-30T11:15:35.620Z,1009.49
2019-05-30T11:16:35.607Z,1009.44
2019-05-30T11:17:48.993Z,1009.41
2019-05-30T11:18:35.592Z,1009.45
2019-05-30T11:19:35.573Z,1009.40
2019-05-30T11:20:35.559Z,1009.35
2019-05-30T11:21:35.551Z,1009.42
2019-05-30T11:22:35.538Z,1009.40
2019-05-30T11:23:35.531Z,1009.34
2019-05-30T11:24:35.521Z,1009.32
2019-05-30T11:25:35.514Z,1009.37
2019-05-30T11:26:35.492Z,1009.27
2019-05-30T11:27:35.485Z,1009.32
2019-05-30T11:28:35.489Z,1009.35
2019-05-30T11:29:35.467Z,1009.41
2019-05-30T11:30:35.477Z,1009.28
2019-05-30T11:31:35.457Z,1009.37
2019-05-30T11:32:35.454Z,1009.38
2019-05-30T11:33:35.432Z,1009.34
2019-05-30T11:34:35.421Z,1009.32
2019-05-30T11:35:35.391Z,1009.37
2019-05-30T11:36:35.409Z,1009.33
2019-05-30T11:37:35.370Z,1009.23
2019-05-30T11:38:35.364Z,1009.22
2019-05-30T11:39:35.397Z,1009.31
2019-05-30T11:40:35.950Z,1009.34
2019-05-30T11:41:35.330Z,1009.31
2019-05-30T11:42:35.320Z,1009.28
2019-05-30T11:43:35.315Z,1009.36
2019-05-30T11:44:35.321Z,1009.26
2019-05-30T11:45:35.301Z,1009.39
2019-05-30T11:46:35.274Z,1009.40
2019-05-30T11:47:35.258Z,1009.44
2019-05-30T11:48:46.904Z,1009.46
2019-05-30T11:49:35.234Z,1009.47
2019-05-30T11:50:35.259Z,1009.40
2019-05-30T11:51:35.211Z,1009.50
2019-05-30T11:52:35.203Z,1009.46
2019-05-30T11:53:35.187Z,1009.44
2019-05-30T11:54:35.180Z,1009.37
2019-05-30T11:55:35.169Z,1009.44
2019-05-30T11:56:35.168Z,1009.46
2019-05-30T11:57:35.190Z,1009.42
2019-05-30T11:58:35.142Z,1009.45
2019-05-30T11:59:35.119Z,1009.49
2019-05-30T12:00:35.116Z,1009.31
2019-05-30T12:01:35.108Z,1009.37
2019-05-30T12:02:35.130Z,1009.38
2019-05-30T12:03:35.078Z,1009.43
2019-05-30T12:04:35.082Z,1009.48
2019-05-30T12:05:35.051Z,1009.40
2019-05-30T12:06:35.094Z,1009.36
2019-05-30T12:07:36.799Z,1009.39
2019-05-30T12:08:35.020Z,1009.37
2019-05-30T12:09:35.045Z,1009.37
2019-05-30T12:10:34.996Z,1009.40
2019-05-30T12:11:34.982Z,1009.38
2019-05-30T12:12:35.045Z,1009.52
2019-05-30T12:13:34.970Z,1009.40
2019-05-30T12:14:34.956Z,1009.48
2019-05-30T12:15:34.956Z,1009.41
2019-05-30T12:16:35.036Z,1009.47
2019-05-30T12:17:34.926Z,1009.37
2019-05-30T12:18:34.905Z,1009.37
2019-05-30T12:19:46.538Z,1009.39
2019-05-30T12:20:34.886Z,1009.44
2019-05-30T12:21:34.875Z,1009.39
2019-05-30T12:22:34.872Z,1009.44
2019-05-30T12:23:34.851Z,1009.40
2019-05-30T12:24:34.845Z,1009.45
2019-05-30T12:25:34.831Z,1009.45
2019-05-30T12:26:34.822Z,1009.41
2019-05-30T12:27:34.940Z,1009.33
2019-05-30T12:28:34.839Z,1009.37
2019-05-30T12:29:34.795Z,1009.37
2019-05-30T12:30:34.772Z,1009.37
2019-05-30T12:31:34.777Z,1009.35
2019-05-30T12:32:34.760Z,1009.22
2019-05-30T12:33:34.759Z,1009.33
2019-05-30T12:34:34.728Z,1009.39
2019-05-30T12:35:34.725Z,1009.46
2019-05-30T12:36:34.701Z,1009.34
2019-05-30T12:37:34.699Z,1009.35
2019-05-30T12:38:34.803Z,1009.39
2019-05-30T12:39:34.677Z,1009.33
2019-05-30T12:40:34.668Z,1009.41
2019-05-30T12:41:34.658Z,1009.33
2019-05-30T12:42:34.657Z,1009.42
2019-05-30T12:43:34.664Z,1009.36
2019-05-30T12:44:34.615Z,1009.41
2019-05-30T12:45:34.624Z,1009.42
2019-05-30T12:46:34.625Z,1009.47
2019-05-30T12:47:34.585Z,1009.55
2019-05-30T12:48:34.567Z,1009.44
2019-05-30T12:49:34.566Z,1009.30
2019-05-30T12:50:46.184Z,1009.33
2019-05-30T12:51:34.532Z,1009.47
2019-05-30T12:52:34.526Z,1009.49
2019-05-30T12:53:34.513Z,1009.35
2019-05-30T12:54:34.505Z,1009.44
2019-05-30T12:55:37.576Z,1009.42
2019-05-30T12:56:34.500Z,1009.45
2019-05-30T12:57:34.581Z,1009.39
2019-05-30T12:58:34.620Z,1009.40
2019-05-30T12:59:34.709Z,1009.34
2019-05-30T13:00:34.431Z,1009.38
2019-05-30T13:01:34.422Z,1009.27
2019-05-30T13:02:34.411Z,1009.29
2019-05-30T13:03:34.424Z,1009.27
2019-05-30T13:04:34.388Z,1009.28
2019-05-30T13:05:34.395Z,1009.27
2019-05-30T13:06:34.386Z,1009.32
2019-05-30T13:07:34.370Z,1009.31
2019-05-30T13:08:34.356Z,1009.25
2019-05-30T13:09:34.353Z,1009.25
2019-05-30T13:10:34.330Z,1009.29
2019-05-30T13:11:34.315Z,1009.25
2019-05-30T13:12:34.296Z,1009.28
2019-05-30T13:13:34.282Z,1009.20
2019-05-30T13:14:34.299Z,1009.26
2019-05-30T13:15:34.282Z,1009.29
2019-05-30T13:16:34.264Z,1009.25
2019-05-30T13:17:34.282Z,1009.27
2019-05-30T13:18:34.251Z,1009.31
2019-05-30T13:19:34.221Z,1009.24
2019-05-30T13:20:34.210Z,1009.22
2019-05-30T13:21:46.111Z,1009.19
2019-05-30T13:22:34.189Z,1009.25
2019-05-30T13:23:34.173Z,1009.24
2019-05-30T13:24:34.158Z,1009.19
2019-05-30T13:25:34.147Z,1009.21
2019-05-30T13:26:34.179Z,1009.23
2019-05-30T13:27:34.125Z,1009.17
2019-05-30T13:28:34.206Z,1009.11
2019-05-30T13:29:34.105Z,1009.19
2019-05-30T13:30:34.157Z,1009.14
2019-05-30T13:31:34.085Z,1009.23
2019-05-30T13:32:34.091Z,1009.21
2019-05-30T13:33:34.071Z,1009.23
2019-05-30T13:34:34.055Z,1009.14
2019-05-30T13:35:34.045Z,1009.08
2019-05-30T13:36:34.087Z,1009.24
2019-05-30T13:37:34.031Z,1009.06
2019-05-30T13:38:34.018Z,1009.19
2019-05-30T13:39:34.022Z,1009.11
2019-05-30T13:40:33.989Z,1009.16
2019-05-30T13:41:33.978Z,1008.99
2019-05-30T13:42:34.000Z,1009.06
2019-05-30T13:43:33.978Z,1009.10
2019-05-30T13:44:33.935Z,1009.07
2019-05-30T13:45:33.935Z,1009.05
2019-05-30T13:46:33.930Z,1009.06
2019-05-30T13:47:33.908Z,1009.14
2019-05-30T13:48:33.905Z,1009.08
2019-05-30T13:49:33.894Z,1009.07
2019-05-30T13:50:33.874Z,1008.98
2019-05-30T13:51:34.014Z,1008.91
2019-05-30T13:52:45.657Z,1008.99
2019-05-30T13:53:33.843Z,1009.06
2019-05-30T13:54:33.836Z,1009.02
2019-05-30T13:55:33.814Z,1008.99
2019-05-30T13:56:33.810Z,1009.01
2019-05-30T13:57:33.790Z,1009.00
2019-05-30T13:58:33.788Z,1008.91
2019-05-30T13:59:33.821Z,1008.90
2019-05-30T14:00:33.781Z,1008.92
2019-05-30T14:01:33.755Z,1008.93
2019-05-30T14:02:33.745Z,1009.00
2019-05-30T14:03:33.736Z,1008.89
2019-05-30T14:04:33.716Z,1008.85
2019-05-30T14:05:33.725Z,1008.89
2019-05-30T14:06:33.697Z,1008.89
2019-05-30T14:07:33.716Z,1008.92
2019-05-30T14:08:41.484Z,1008.87
2019-05-30T14:09:34.664Z,1008.85
2019-05-30T14:10:33.683Z,1008.82
2019-05-30T14:11:33.642Z,1008.85
2019-05-30T14:12:33.670Z,1008.80
2019-05-30T14:13:33.622Z,1008.79
2019-05-30T14:14:33.615Z,1008.73
2019-05-30T14:15:33.773Z,1008.75
2019-05-30T14:16:33.591Z,1008.72
2019-05-30T14:17:33.573Z,1008.79
2019-05-30T14:18:33.565Z,1008.76
2019-05-30T14:19:33.611Z,1008.74
2019-05-30T14:20:33.549Z,1008.63
2019-05-30T14:21:33.551Z,1008.70
2019-05-30T14:22:33.522Z,1008.63
2019-05-30T14:23:45.547Z,1008.59
2019-05-30T14:24:33.492Z,1008.71
2019-05-30T14:25:33.490Z,1008.65
2019-05-30T14:26:33.487Z,1008.70
2019-05-30T14:27:33.461Z,1008.70
2019-05-30T14:28:33.450Z,1008.73
2019-05-30T14:29:33.437Z,1008.71
2019-05-30T14:30:33.438Z,1008.66
2019-05-30T14:31:33.469Z,1008.66
2019-05-30T14:32:33.411Z,1008.59
2019-05-30T14:33:33.404Z,1008.57
2019-05-30T14:34:33.385Z,1008.56
2019-05-30T14:35:33.391Z,1008.53
2019-05-30T14:36:33.371Z,1008.49
2019-05-30T14:37:33.386Z,1008.49